Time;durP1;ratioP1;P1;durP2;ratioP2;P2;SDS_P1;SDS_P2;PMS_P1;PMS_P2;Temp;Humidity;BMP_temperature;BMP_pressure;BME280_temperature;BME280_humidity;BME280_pressure;Samples;Min_cycle;Max_cycle;Signal;HPM_P1;HPM_P2
2021/05/07 00:01:05;;;;;;;18.43;16.43;;;7.10;91.10;;;;;;5095040;28;20164;-80
2021/05/07 00:03:31;;;;;;;18.20;16.30;;;7.20;92.10;;;;;;5095400;28;20195;-80
2021/05/07 00:05:57;;;;;;;22.30;17.20;;;7.20;92.00;;;;;;5093501;28;20176;-80
2021/05/07 00:08:26;;;;;;;20.03;16.83;;;7.20;92.20;;;;;;5094505;28;20163;-80
2021/05/07 00:10:57;;;;;;;19.33;17.27;;;7.30;91.60;;;;;;5093179;28;20262;-79
2021/05/07 00:13:23;;;;;;;22.40;17.97;;;7.40;91.40;;;;;;5082022;28;20172;-80
2021/05/07 00:15:49;;;;;;;18.53;16.63;;;7.40;90.20;;;;;;5073110;28;20310;-80
2021/05/07 00:18:15;;;;;;;17.83;15.93;;;7.40;90.50;;;;;;5074042;28;20632;-78
2021/05/07 00:20:41;;;;;;;20.53;16.93;;;7.20;90.70;;;;;;5074106;28;20258;-79
2021/05/07 00:23:06;;;;;;;18.27;16.40;;;7.10;91.30;;;;;;5074115;28;20168;-80
2021/05/07 00:25:32;;;;;;;17.73;15.83;;;7.10;92.20;;;;;;5073783;28;20318;-81
2021/05/07 00:28:03;;;;;;;17.93;16.03;;;7.10;92.60;;;;;;5072655;28;20172;-81
2021/05/07 00:30:28;;;;;;;18.43;16.53;;;7.20;92.70;;;;;;5074003;28;20173;-79
2021/05/07 00:32:54;;;;;;;18.93;16.73;;;7.20;92.00;;;;;;5073588;28;20651;-81
2021/05/07 00:35:20;;;;;;;19.47;17.33;;;7.20;91.60;;;;;;5072205;28;20258;-80
2021/05/07 00:37:45;;;;;;;18.80;16.83;;;7.30;91.50;;;;;;5073747;28;20164;-80
2021/05/07 00:40:12;;;;;;;18.80;16.90;;;7.30;90.50;;;;;;5072478;28;20231;-80
2021/05/07 00:42:37;;;;;;;21.10;17.27;;;7.30;90.40;;;;;;5073675;28;20209;-81
2021/05/07 00:45:04;;;;;;;21.33;16.77;;;7.20;90.10;;;;;;5073396;28;20208;-78
2021/05/07 00:47:30;;;;;;;20.47;17.77;;;7.30;90.10;;;;;;5072265;28;20164;-81
2021/05/07 00:49:55;;;;;;;20.67;17.50;;;7.20;88.60;;;;;;5073164;28;20254;-81
2021/05/07 00:52:21;;;;;;;20.73;17.37;;;7.00;90.10;;;;;;5073589;28;20187;-80
2021/05/07 00:54:47;;;;;;;19.33;17.40;;;6.90;91.40;;;;;;5073629;28;20187;-79
2021/05/07 00:57:12;;;;;;;21.23;16.83;;;6.80;92.70;;;;;;5073369;28;20248;-80
2021/05/07 00:59:39;;;;;;;21.17;18.10;;;6.80;93.30;;;;;;5085672;28;20186;-79
2021/05/07 01:02:04;;;;;;;22.37;17.87;;;6.90;93.20;;;;;;5092541;28;20246;-80
2021/05/07 01:04:30;;;;;;;20.93;18.70;;;6.90;92.80;;;;;;5093083;28;20298;-80
2021/05/07 01:06:55;;;;;;;20.50;18.27;;;6.80;92.90;;;;;;5093124;28;20171;-79
2021/05/07 01:09:21;;;;;;;20.87;18.60;;;6.80;93.80;;;;;;5093538;28;20258;-80
2021/05/07 01:11:47;;;;;;;20.57;18.17;;;6.90;93.80;;;;;;5093988;28;20213;-79
2021/05/07 01:14:12;;;;;;;20.10;17.60;;;6.90;92.90;;;;;;5074338;28;20176;-78
2021/05/07 01:16:38;;;;;;;21.43;18.10;;;6.80;92.90;;;;;;5073212;28;20636;-79
2021/05/07 01:19:04;;;;;;;20.93;18.60;;;6.70;93.10;;;;;;5072801;28;20577;-80
2021/05/07 01:21:32;;;;;;;19.50;17.27;;;6.60;93.80;;;;;;5071787;28;20640;-79
2021/05/07 01:23:57;;;;;;;21.23;17.80;;;6.50;94.80;;;;;;5072505;28;20295;-80
2021/05/07 01:26:23;;;;;;;21.17;17.90;;;6.50;95.80;;;;;;5073094;28;20252;-79
2021/05/07 01:28:49;;;;;;;23.80;17.93;;;6.60;95.80;;;;;;5072847;28;20169;-80
2021/05/07 01:31:14;;;;;;;20.70;18.50;;;6.60;95.40;;;;;;5072903;28;20168;-80
2021/05/07 01:33:40;;;;;;;21.60;18.50;;;6.80;94.30;;;;;;5071280;28;20652;-81
2021/05/07 01:36:06;;;;;;;22.23;17.77;;;6.70;93.90;;;;;;5072764;28;20539;-79
2021/05/07 01:38:33;;;;;;;23.40;18.43;;;6.70;93.60;;;;;;5072757;28;20251;-79
2021/05/07 01:40:59;;;;;;;20.57;18.30;;;6.70;93.90;;;;;;5071303;28;20172;-81
2021/05/07 01:43:26;;;;;;;19.63;17.63;;;6.60;93.70;;;;;;5071436;28;20544;-80
2021/05/07 01:45:52;;;;;;;20.60;18.50;;;6.60;94.00;;;;;;5073199;28;20547;-80
2021/05/07 01:48:18;;;;;;;21.00;17.03;;;6.60;93.80;;;;;;5071505;28;20581;-80
2021/05/07 01:50:46;;;;;;;20.47;17.37;;;6.50;94.20;;;;;;5071520;28;20211;-79
2021/05/07 01:53:12;;;;;;;19.83;17.73;;;6.50;94.70;;;;;;5072987;28;20176;-80
2021/05/07 01:55:40;;;;;;;21.07;17.67;;;6.50;94.50;;;;;;5071489;28;20172;-80
2021/05/07 01:58:08;;;;;;;19.77;17.50;;;6.50;94.00;;;;;;5073422;28;20607;-79
2021/05/07 02:00:34;;;;;;;19.90;17.10;;;6.40;94.20;;;;;;5092978;28;20178;-81
2021/05/07 02:03:04;;;;;;;20.47;17.20;;;6.40;94.60;;;;;;5091494;28;20202;-80
2021/05/07 02:05:32;;;;;;;23.67;17.60;;;6.40;94.90;;;;;;5092904;28;20203;-80
2021/05/07 02:07:59;;;;;;;22.00;16.77;;;6.40;95.00;;;;;;5093056;28;20155;-80
2021/05/07 02:10:27;;;;;;;23.27;17.30;;;6.30;94.70;;;;;;5093137;28;20670;-80
2021/05/07 02:12:54;;;;;;;20.27;17.40;;;6.30;95.00;;;;;;5084711;28;20160;-79
2021/05/07 02:15:22;;;;;;;22.73;18.60;;;6.20;95.20;;;;;;5075241;28;20171;-79
2021/05/07 02:17:48;;;;;;;20.73;17.23;;;6.10;95.70;;;;;;5073513;28;20538;-80
2021/05/07 02:20:16;;;;;;;24.27;17.80;;;6.00;96.10;;;;;;5077895;28;20188;-81
2021/05/07 02:22:43;;;;;;;19.77;16.70;;;6.00;96.10;;;;;;5076945;28;20285;-78
2021/05/07 02:25:10;;;;;;;20.93;17.17;;;6.00;96.30;;;;;;5076575;28;20216;-80
2021/05/07 02:27:36;;;;;;;22.13;17.60;;;6.10;95.80;;;;;;5076695;28;20608;-79
2021/05/07 02:30:03;;;;;;;20.90;17.87;;;6.10;95.40;;;;;;5077138;28;20172;-80
2021/05/07 02:32:29;;;;;;;20.93;18.23;;;6.10;94.40;;;;;;5076318;28;20222;-80
2021/05/07 02:34:54;;;;;;;21.57;17.93;;;6.00;94.90;;;;;;5076514;28;20639;-79
2021/05/07 02:37:20;;;;;;;19.90;17.70;;;6.00;94.70;;;;;;5076451;28;20168;-79
2021/05/07 02:39:46;;;;;;;23.03;17.80;;;6.00;95.20;;;;;;5076437;28;20222;-81
2021/05/07 02:42:12;;;;;;;19.27;16.80;;;6.00;95.20;;;;;;5076331;28;20507;-79
2021/05/07 02:44:37;;;;;;;20.73;16.63;;;6.00;95.50;;;;;;5075889;28;20648;-80
2021/05/07 02:47:04;;;;;;;19.80;16.77;;;6.00;95.00;;;;;;5074365;28;20176;-81
2021/05/07 02:49:34;;;;;;;22.07;17.00;;;6.10;95.20;;;;;;5075714;28;20255;-78
2021/05/07 02:52:01;;;;;;;22.53;17.00;;;6.20;94.20;;;;;;5075996;28;20194;-80
2021/05/07 02:54:27;;;;;;;19.77;17.10;;;6.20;93.10;;;;;;5074850;28;20571;-78
2021/05/07 02:56:53;;;;;;;21.93;18.53;;;6.10;92.70;;;;;;5075407;28;20164;-79
2021/05/07 02:59:19;;;;;;;21.90;17.27;;;6.10;92.90;;;;;;5085520;28;20220;-80
2021/05/07 03:01:45;;;;;;;20.93;17.63;;;6.10;93.30;;;;;;5096184;28;20644;-78
2021/05/07 03:04:10;;;;;;;24.73;17.47;;;6.10;92.80;;;;;;5096103;28;20211;-79
2021/05/07 03:06:36;;;;;;;21.93;16.63;;;6.20;92.40;;;;;;5095917;28;20276;-79
2021/05/07 03:09:03;;;;;;;20.23;16.43;;;6.10;91.40;;;;;;5095795;28;20281;-81
2021/05/07 03:11:29;;;;;;;20.43;18.23;;;6.20;91.40;;;;;;5095534;28;20505;-80
2021/05/07 03:13:54;;;;;;;22.50;18.30;;;6.40;87.10;;;;;;5078824;28;20179;-81
2021/05/07 03:16:23;;;;;;;20.23;17.47;;;6.30;81.90;;;;;;5074968;28;20614;-79
2021/05/07 03:18:51;;;;;;;23.83;19.20;;;6.30;82.80;;;;;;5075146;28;20550;-80
2021/05/07 03:21:17;;;;;;;24.70;18.70;;;6.10;83.80;;;;;;5075659;28;20176;-80
2021/05/07 03:23:43;;;;;;;20.53;18.23;;;6.10;84.80;;;;;;5075233;28;20219;-80
2021/05/07 03:26:09;;;;;;;23.53;18.80;;;6.10;86.20;;;;;;5073950;28;20188;-80
2021/05/07 03:28:37;;;;;;;23.80;18.20;;;6.10;85.80;;;;;;5074712;28;20640;-79
2021/05/07 03:31:03;;;;;;;23.60;19.13;;;6.00;85.90;;;;;;5074378;28;20637;-79
2021/05/07 03:33:28;;;;;;;21.00;16.93;;;6.00;85.30;;;;;;5074879;28;20248;-79
2021/05/07 03:35:54;;;;;;;25.53;18.23;;;5.90;87.00;;;;;;5075158;28;20187;-79
2021/05/07 03:38:20;;;;;;;22.20;16.90;;;5.90;89.60;;;;;;5073513;28;20173;-82
2021/05/07 03:40:45;;;;;;;20.17;16.97;;;5.80;90.00;;;;;;5073815;28;20211;-80
2021/05/07 03:43:11;;;;;;;21.20;16.20;;;5.90;90.60;;;;;;5073254;28;20177;-78
2021/05/07 03:45:36;;;;;;;21.33;17.03;;;5.90;90.00;;;;;;5073305;28;20265;-80
2021/05/07 03:48:16;;;;;;;21.47;18.33;;;5.90;89.40;;;;;;5073182;28;20168;-80
2021/05/07 03:50:42;;;;;;;21.17;16.20;;;5.90;89.70;;;;;;5074761;28;20179;-80
2021/05/07 03:53:11;;;;;;;21.43;17.33;;;6.00;88.40;;;;;;5073286;28;20714;-80
2021/05/07 03:55:38;;;;;;;23.30;18.47;;;5.90;89.70;;;;;;5074647;28;20180;-80
2021/05/07 03:58:04;;;;;;;21.50;17.60;;;5.90;90.60;;;;;;5073434;28;20226;-79
2021/05/07 04:00:29;;;;;;;21.37;17.50;;;5.90;91.50;;;;;;5094862;28;20203;-79
2021/05/07 04:02:55;;;;;;;23.13;17.47;;;5.80;92.20;;;;;;5094543;28;20668;-78
2021/05/07 04:05:21;;;;;;;24.53;18.20;;;5.80;93.30;;;;;;5094295;28;20790;-79
2021/05/07 04:07:51;;;;;;;19.60;17.50;;;5.90;93.70;;;;;;5094356;28;20167;-79
2021/05/07 04:10:19;;;;;;;25.53;17.93;;;6.00;93.20;;;;;;5094626;28;20529;-80
2021/05/07 04:15:15;;;;;;;21.73;18.40;;;6.20;90.90;;;;;;5074593;28;20172;-80
2021/05/07 04:17:41;;;;;;;23.90;18.83;;;6.20;90.20;;;;;;5074226;28;20576;-79
2021/05/07 04:20:09;;;;;;;22.27;17.67;;;6.30;90.70;;;;;;5073002;28;20199;-80
2021/05/07 04:22:34;;;;;;;21.13;18.00;;;6.20;91.40;;;;;;5073881;28;20180;-79
2021/05/07 04:25:00;;;;;;;23.70;18.00;;;6.20;92.30;;;;;;5072497;28;20226;-80
2021/05/07 04:27:26;;;;;;;18.97;15.80;;;6.20;92.30;;;;;;5073610;28;20164;-79
2021/05/07 04:29:52;;;;;;;19.30;16.40;;;6.20;91.50;;;;;;5073488;28;20173;-80
2021/05/07 04:32:18;;;;;;;21.43;15.90;;;6.20;91.10;;;;;;5072434;28;20164;-80
2021/05/07 04:34:43;;;;;;;20.70;15.60;;;6.20;91.30;;;;;;5073740;28;20217;-80
2021/05/07 04:37:09;;;;;;;19.60;15.13;;;6.20;91.30;;;;;;5073752;28;20168;-80
2021/05/07 04:39:35;;;;;;;18.20;13.47;;;6.20;91.10;;;;;;5073629;28;20699;-80
2021/05/07 04:42:00;;;;;;;17.80;13.63;;;6.20;91.10;;;;;;5072830;28;20239;-79
2021/05/07 04:44:26;;;;;;;19.40;15.17;;;6.10;91.80;;;;;;5072429;28;20310;-80
2021/05/07 04:46:52;;;;;;;16.73;12.80;;;6.20;92.50;;;;;;5073415;28;20172;-80
2021/05/07 04:49:19;;;;;;;15.27;13.10;;;6.20;92.70;;;;;;5073410;28;20255;-79
2021/05/07 04:51:44;;;;;;;18.53;13.50;;;6.20;92.80;;;;;;5071915;28;20192;-79
2021/05/07 04:54:10;;;;;;;15.23;13.37;;;6.30;92.70;;;;;;5073309;28;20176;-79
2021/05/07 04:56:35;;;;;;;16.40;12.60;;;6.30;92.10;;;;;;5073000;28;20671;-80
2021/05/07 04:59:01;;;;;;;14.90;12.03;;;6.30;92.30;;;;;;5080944;28;20263;-79
2021/05/07 05:01:27;;;;;;;16.17;11.83;;;6.40;92.40;;;;;;5093843;28;20221;-81
2021/05/07 05:03:52;;;;;;;16.27;11.40;;;6.40;92.80;;;;;;5093495;28;20583;-79
2021/05/07 05:06:18;;;;;;;16.87;12.23;;;6.40;92.80;;;;;;5093474;28;20179;-79
2021/05/07 05:08:43;;;;;;;15.50;11.90;;;6.50;92.40;;;;;;5092519;28;20184;-79
2021/05/07 05:11:09;;;;;;;16.37;12.17;;;6.50;92.50;;;;;;5093315;28;20180;-81
2021/05/07 05:13:35;;;;;;;15.30;11.93;;;6.60;92.90;;;;;;5079413;28;20172;-80
2021/05/07 05:16:00;;;;;;;14.03;11.37;;;6.70;92.10;;;;;;5071685;28;20201;-80
2021/05/07 05:18:31;;;;;;;15.87;12.00;;;6.80;91.20;;;;;;5073150;28;20172;-79
2021/05/07 05:20:59;;;;;;;14.80;12.07;;;6.70;90.90;;;;;;5072549;28;20176;-82
2021/05/07 05:23:26;;;;;;;16.53;11.73;;;6.80;90.40;;;;;;5073069;28;20265;-81
2021/05/07 05:25:52;;;;;;;15.27;10.97;;;6.80;90.10;;;;;;5072339;28;20559;-79
2021/05/07 05:28:18;;;;;;;15.23;11.23;;;6.80;89.20;;;;;;5072137;28;20200;-78
2021/05/07 05:30:44;;;;;;;14.87;11.97;;;6.80;89.80;;;;;;5072486;28;20164;-79
2021/05/07 05:33:10;;;;;;;13.10;11.10;;;6.80;90.10;;;;;;5072889;28;20633;-80
2021/05/07 05:35:36;;;;;;;13.63;11.30;;;6.80;89.20;;;;;;5071193;28;20192;-80
2021/05/07 05:38:02;;;;;;;15.97;10.77;;;6.90;89.20;;;;;;5071093;28;20176;-78
2021/05/07 05:40:28;;;;;;;12.90;10.20;;;6.90;85.00;;;;;;5072021;28;20651;-79
2021/05/07 05:42:53;;;;;;;14.03;10.80;;;6.80;81.20;;;;;;5072435;28;20172;-78
2021/05/07 05:45:21;;;;;;;12.07;10.67;;;6.80;83.40;;;;;;5072221;28;20207;-79
2021/05/07 05:47:47;;;;;;;11.40;9.13;;;6.70;82.50;;;;;;5072292;28;20179;-80
2021/05/07 05:50:12;;;;;;;11.87;9.63;;;6.80;82.70;;;;;;5068394;28;20180;-79
2021/05/07 05:52:38;;;;;;;13.63;10.57;;;6.90;81.50;;;;;;5071546;28;20628;-81
2021/05/07 05:55:04;;;;;;;13.30;10.33;;;6.90;80.50;;;;;;5066370;28;20605;-79
2021/05/07 05:57:31;;;;;;;14.17;10.03;;;6.90;79.70;;;;;;5053027;28;20177;-80
2021/05/07 05:59:56;;;;;;;14.03;10.47;;;6.90;79.30;;;;;;5083525;28;20539;-78
2021/05/07 06:02:22;;;;;;;13.83;10.40;;;6.90;79.70;;;;;;5092907;28;20174;-77
2021/05/07 06:04:48;;;;;;;11.93;10.20;;;7.00;79.60;;;;;;5092157;28;20654;-78
2021/05/07 06:07:13;;;;;;;11.60;10.30;;;7.00;80.00;;;;;;5090741;28;20194;-80
2021/05/07 06:09:39;;;;;;;9.93;8.20;;;7.10;79.40;;;;;;5091607;28;20163;-79
2021/05/07 06:12:07;;;;;;;9.83;8.73;;;7.20;71.90;;;;;;5070260;28;20253;-79
2021/05/07 06:14:36;;;;;;;16.13;11.93;;;7.20;67.40;;;;;;5071270;28;20184;-80
2021/05/07 06:17:02;;;;;;;10.23;7.77;;;7.20;70.30;;;;;;5070583;28;20173;-79
2021/05/07 06:19:27;;;;;;;11.20;7.80;;;7.20;67.10;;;;;;5071580;28;20679;-80
2021/05/07 06:21:53;;;;;;;9.90;7.10;;;7.20;64.60;;;;;;5071887;28;20180;-83
2021/05/07 06:24:18;;;;;;;9.13;7.03;;;7.40;60.80;;;;;;5071826;28;20235;-79
2021/05/07 06:26:44;;;;;;;7.67;6.50;;;7.40;55.30;;;;;;5075882;28;20176;-79
2021/05/07 06:29:10;;;;;;;9.30;7.17;;;7.40;54.00;;;;;;5086611;28;20203;-80
2021/05/07 06:31:35;;;;;;;9.87;6.70;;;7.50;54.40;;;;;;5074499;28;20172;-79
2021/05/07 06:34:01;;;;;;;9.00;6.40;;;7.60;52.30;;;;;;5059108;28;20196;-77
2021/05/07 06:36:28;;;;;;;7.57;6.23;;;7.60;47.50;;;;;;5070726;28;20187;-79
2021/05/07 06:38:54;;;;;;;7.17;5.73;;;7.50;39.50;;;;;;5070314;28;20222;-79
2021/05/07 06:41:21;;;;;;;6.57;5.87;;;7.50;42.60;;;;;;5068465;28;20176;-80
2021/05/07 06:43:48;;;;;;;6.70;5.90;;;7.50;36.10;;;;;;5083345;28;20546;-78
2021/05/07 06:46:14;;;;;;;7.83;5.50;;;7.60;41.10;;;;;;5091163;28;20713;-78
2021/05/07 06:48:42;;;;;;;6.80;5.20;;;7.60;41.10;;;;;;5091797;28;20681;-79
2021/05/07 06:51:08;;;;;;;8.67;6.27;;;7.70;39.40;;;;;;5086283;28;20555;-78
2021/05/07 06:53:34;;;;;;;6.17;5.57;;;7.90;38.40;;;;;;5060771;28;20173;-78
2021/05/07 06:55:59;;;;;;;8.37;5.47;;;7.90;33.60;;;;;;5049122;28;20176;-77
2021/05/07 06:58:25;;;;;;;7.30;5.27;;;7.60;32.80;;;;;;5057041;28;20168;-78
2021/05/07 07:00:51;;;;;;;8.30;5.80;;;7.60;34.60;;;;;;5077978;28;20527;-79
2021/05/07 07:03:16;;;;;;;6.60;5.47;;;7.80;27.50;;;;;;5069927;28;20200;-80
2021/05/07 07:05:42;;;;;;;5.87;5.20;;;7.90;28.50;;;;;;5072827;28;20235;-78
2021/05/07 07:08:08;;;;;;;6.37;5.30;;;7.90;29.10;;;;;;5073724;28;20658;-79
2021/05/07 07:10:33;;;;;;;6.80;5.30;;;8.10;28.20;;;;;;5074375;28;20175;-78
2021/05/07 07:12:59;;;;;;;6.77;5.33;;;8.00;9.30;;;;;;5074210;28;20179;-79
2021/05/07 07:15:24;;;;;;;6.97;5.30;;;8.00;7.40;;;;;;5073967;28;20186;-80
2021/05/07 07:17:50;;;;;;;5.57;4.83;;;7.90;3.20;;;;;;5074086;28;20179;-81
2021/05/07 07:20:16;;;;;;;5.70;5.20;;;8.10;5.20;;;;;;5073732;28;20222;-77
2021/05/07 07:22:41;;;;;;;6.53;5.17;;;8.00;1.00;;;;;;5073286;28;20175;-76
2021/05/07 07:25:10;;;;;;;7.20;4.70;;;8.10;1.00;;;;;;5073974;28;20213;-80
2021/05/07 07:27:35;;;;;;;8.20;5.87;;;8.00;1.00;;;;;;5074006;28;20164;-80
2021/05/07 07:30:01;;;;;;;7.10;5.70;;;7.90;1.00;;;;;;5073793;28;20238;-78
2021/05/07 07:32:27;;;;;;;8.20;5.60;;;8.00;1.00;;;;;;5073792;28;20168;-80
2021/05/07 07:34:56;;;;;;;8.17;5.50;;;8.20;1.00;;;;;;5084384;28;20655;-79
2021/05/07 07:37:22;;;;;;;6.03;5.20;;;8.30;1.00;;;;;;5093595;28;20168;-79
2021/05/07 07:39:47;;;;;;;7.57;5.23;;;8.20;1.00;;;;;;5093881;28;20589;-80
2021/05/07 07:42:13;;;;;;;5.37;4.83;;;8.30;1.00;;;;;;5093341;28;20179;-79
2021/05/07 07:44:39;;;;;;;7.90;4.97;;;8.40;1.00;;;;;;5092469;28;20214;-79
2021/05/07 07:47:04;;;;;;;6.30;5.13;;;8.40;1.00;;;;;;5094109;28;20213;-79
2021/05/07 07:49:30;;;;;;;6.73;5.27;;;8.50;1.00;;;;;;5093481;28;20258;-80
2021/05/07 07:51:58;;;;;;;6.47;4.97;;;8.60;1.00;;;;;;5093240;28;20655;-77
2021/05/07 07:54:24;;;;;;;6.33;5.50;;;8.50;1.00;;;;;;5092741;28;20172;-79
2021/05/07 07:56:50;;;;;;;6.87;5.57;;;8.60;1.00;;;;;;5093934;28;20255;-78
2021/05/07 07:59:15;;;;;;;6.90;5.60;;;8.70;1.00;;;;;;5082779;28;20255;-78
2021/05/07 08:01:42;;;;;;;8.80;5.03;;;9.00;1.00;;;;;;5071175;28;20177;-77
2021/05/07 08:04:08;;;;;;;7.13;4.70;;;9.10;1.00;;;;;;5061368;28;20212;-78
2021/05/07 08:06:34;;;;;;;6.70;5.23;;;9.30;1.00;;;;;;5053050;28;20180;-78
2021/05/07 08:09:00;;;;;;;6.17;5.33;;;9.40;1.00;;;;;;5071815;28;20654;-77
2021/05/07 08:11:26;;;;;;;6.67;5.30;;;9.50;1.00;;;;;;5073149;28;20182;-78
2021/05/07 08:13:52;;;;;;;7.17;5.03;;;9.40;1.00;;;;;;5073115;28;20180;-78
2021/05/07 08:16:17;;;;;;;6.30;5.70;;;9.30;1.00;;;;;;5071971;28;20259;-79
2021/05/07 08:18:43;;;;;;;7.10;5.50;;;9.30;1.00;;;;;;5071386;28;20212;-77
2021/05/07 08:21:09;;;;;;;7.90;5.90;;;9.50;1.00;;;;;;5073303;28;20251;-79
2021/05/07 08:23:35;;;;;;;6.10;5.30;;;9.60;1.00;;;;;;5072654;28;20736;-80
2021/05/07 08:26:01;;;;;;;6.20;4.90;;;9.60;1.00;;;;;;5073390;28;20180;-80
2021/05/07 08:28:27;;;;;;;5.93;5.07;;;9.50;1.00;;;;;;5072715;28;20175;-80
2021/05/07 08:30:53;;;;;;;5.57;5.00;;;9.50;1.00;;;;;;5071923;28;20662;-78
2021/05/07 08:33:19;;;;;;;7.97;4.83;;;9.60;1.00;;;;;;5073732;28;20227;-80
2021/05/07 08:35:44;;;;;;;7.17;4.37;;;9.80;1.00;;;;;;5087228;28;20617;-78
2021/05/07 08:38:11;;;;;;;6.47;5.07;;;9.90;99.90;;;;;;5072340;28;20532;-80
2021/05/07 08:40:37;;;;;;;5.93;4.80;;;10.00;99.90;;;;;;5082475;28;20175;-81
2021/05/07 08:43:06;;;;;;;6.17;5.47;;;10.10;99.90;;;;;;5092067;28;20168;-80
2021/05/07 08:45:32;;;;;;;7.17;5.23;;;10.30;99.90;;;;;;5090713;28;20759;-78
2021/05/07 08:47:58;;;;;;;6.27;4.93;;;10.50;99.90;;;;;;5091062;28;20191;-78
2021/05/07 08:50:23;;;;;;;7.73;5.13;;;10.70;99.90;;;;;;5071727;28;20244;-79
2021/05/07 08:52:49;;;;;;;6.87;5.47;;;10.60;99.90;;;;;;5072435;28;20169;-78
2021/05/07 08:55:15;;;;;;;6.43;5.37;;;10.60;99.90;;;;;;5072649;28;20164;-79
2021/05/07 08:57:41;;;;;;;5.90;5.37;;;10.60;1.00;;;;;;5072102;28;20214;-79
2021/05/07 09:00:09;;;;;;;5.97;5.37;;;10.50;99.90;;;;;;5089678;28;20222;-77
2021/05/07 09:02:35;;;;;;;6.80;5.30;;;10.30;1.00;;;;;;5090619;28;20203;-78
2021/05/07 09:05:01;;;;;;;6.63;6.00;;;10.20;99.90;;;;;;5071658;28;20769;-78
2021/05/07 09:07:30;;;;;;;5.77;3.97;;;10.30;99.90;;;;;;5091971;28;20673;-77
2021/05/07 09:09:59;;;;;;;6.63;5.03;;;10.30;1.00;;;;;;5091499;28;20186;-78
2021/05/07 09:12:41;;;;;;;5.30;4.73;;;10.40;99.90;;;;;;5087796;28;20171;-78
2021/05/07 09:15:09;;;;;;;5.80;5.17;;;10.60;73.90;;;;;;5071442;28;20666;-80
2021/05/07 09:17:37;;;;;;;5.97;5.23;;;10.80;1.00;;;;;;5071888;28;20179;-79
2021/05/07 09:20:07;;;;;;;7.30;6.03;;;11.10;99.90;;;;;;5071503;28;20168;-78
2021/05/07 09:22:33;;;;;;;7.43;5.77;;;11.40;1.00;;;;;;5071534;28;20183;-79
2021/05/07 09:25:12;;;;;;;6.77;5.60;;;11.20;1.00;;;;;;5071484;28;20204;-79
2021/05/07 09:27:38;;;;;;;8.00;6.03;;;11.20;1.00;;;;;;5070963;28;20171;-79
2021/05/07 09:30:09;;;;;;;6.43;5.83;;;11.00;99.90;;;;;;5070936;28;20168;-78
2021/05/07 09:32:35;;;;;;;7.83;6.40;;;10.80;1.00;;;;;;5071785;28;20196;-78
2021/05/07 09:35:11;;;;;;;6.40;5.77;;;10.70;99.90;;;;;;5071038;28;20681;-77
2021/05/07 09:37:37;;;;;;;7.07;5.40;;;10.80;99.90;;;;;;5071754;28;20172;-79
2021/05/07 09:40:29;;;;;;;7.40;5.47;;;10.80;1.00;;;;;;5078938;28;20178;-77
2021/05/07 09:43:08;;;;;;;9.03;5.13;;;11.20;99.90;;;;;;5089370;28;20514;-78
2021/05/07 09:45:35;;;;;;;5.33;4.70;;;11.50;99.90;;;;;;5091519;28;20199;-77
2021/05/07 09:48:01;;;;;;;6.40;5.23;;;11.60;99.90;;;;;;5091598;28;20213;-78
2021/05/07 09:50:39;;;;;;;6.27;5.17;;;11.40;99.90;;;;;;5091221;28;20171;-78
2021/05/07 09:53:12;;;;;;;5.47;4.93;;;11.50;1.00;;;;;;5092047;28;20271;-79
2021/05/07 09:55:38;;;;;;;6.27;5.17;;;11.30;1.00;;;;;;5091206;28;20163;-77
2021/05/07 09:58:05;;;;;;;5.70;4.40;;;11.10;1.00;;;;;;5090452;28;20190;-78
2021/05/07 10:00:30;;;;;;;6.17;5.43;;;11.10;99.90;;;;;;5070617;28;20168;-77
2021/05/07 10:02:56;;;;;;;5.87;4.93;;;11.20;99.90;;;;;;5070752;28;20195;-79
2021/05/07 10:05:23;;;;;;;5.20;4.70;;;11.50;1.00;;;;;;5070225;28;20672;-77
2021/05/07 10:07:50;;;;;;;5.23;4.10;;;11.50;1.00;;;;;;5070696;28;20255;-77
2021/05/07 10:10:15;;;;;;;5.07;4.30;;;11.50;1.00;;;;;;5070724;28;20201;-79
2021/05/07 10:12:44;;;;;;;6.03;4.57;;;11.50;1.00;;;;;;5070462;28;20176;-79
2021/05/07 10:15:10;;;;;;;5.17;3.63;;;11.90;99.90;;;;;;5070455;28;20175;-79
2021/05/07 10:17:36;;;;;;;5.20;3.77;;;12.10;99.90;;;;;;5070516;28;20171;-78
2021/05/07 10:20:02;;;;;;;3.70;3.30;;;12.30;1.00;;;;;;5070839;28;20177;-79
2021/05/07 10:22:38;;;;;;;6.40;3.63;;;12.30;99.90;;;;;;5069101;28;20191;-78
2021/05/07 10:25:19;;;;;;;4.83;3.67;;;12.10;99.90;;;;;;5071201;28;20202;-78
2021/05/07 10:27:46;;;;;;;6.07;4.00;;;12.00;1.00;;;;;;5070765;28;20164;-80
2021/05/07 10:30:26;;;;;;;5.23;3.67;;;12.10;1.00;;;;;;5070226;28;20172;-78
2021/05/07 10:33:09;;;;;;;5.03;3.90;;;12.00;1.00;;;;;;5070347;28;20172;-79
2021/05/07 10:35:39;;;;;;;5.17;4.50;;;11.70;1.00;;;;;;5070194;28;20172;-80
2021/05/07 10:38:14;;;;;;;5.40;4.53;;;11.70;67.60;;;;;;5065663;28;20363;-78
2021/05/07 10:40:40;;;;;;;5.97;4.50;;;11.60;99.90;;;;;;5074026;28;20632;-80
2021/05/07 10:43:06;;;;;;;5.07;4.17;;;11.90;1.00;;;;;;5076128;28;20172;-78
2021/05/07 10:45:58;;;;;;;6.30;4.50;;;12.20;1.00;;;;;;5075788;28;20211;-77
2021/05/07 10:48:27;;;;;;;8.67;4.77;;;12.50;99.90;;;;;;5071400;28;20238;-79
2021/05/07 10:50:57;;;;;;;5.33;3.93;;;12.40;99.90;;;;;;5074498;28;20251;-78
2021/05/07 10:53:35;;;;;;;5.97;4.20;;;12.20;1.00;;;;;;5074383;28;20180;-79
2021/05/07 10:56:15;;;;;;;5.67;4.50;;;12.30;1.00;;;;;;5073782;28;20175;-79
2021/05/07 10:58:41;;;;;;;4.80;3.87;;;12.50;1.00;;;;;;5079276;28;20170;-79
2021/05/07 11:01:18;;;;;;;6.33;4.53;;;12.50;99.90;;;;;;5094245;28;20167;-79
2021/05/07 11:03:45;;;;;;;6.83;4.63;;;12.60;1.00;;;;;;5083332;28;20198;-79
2021/05/07 11:06:11;;;;;;;5.50;3.90;;;12.80;99.90;;;;;;5073258;28;20187;-79
2021/05/07 11:08:37;;;;;;;5.40;4.60;;;12.80;99.90;;;;;;5072943;28;20172;-78
2021/05/07 11:11:03;;;;;;;5.30;4.30;;;12.80;99.90;;;;;;5074157;28;20173;-79
2021/05/07 11:13:28;;;;;;;4.30;3.90;;;13.00;99.90;;;;;;5072101;28;20176;-78
2021/05/07 11:15:58;;;;;;;6.10;4.40;;;13.20;99.90;;;;;;5073466;28;20203;-78
2021/05/07 11:18:32;;;;;;;5.63;5.03;;;13.40;99.90;;;;;;5073992;28;20523;-79
2021/05/07 11:21:09;;;;;;;7.20;5.00;;;13.10;99.90;;;;;;5073610;28;20900;-79
2021/05/07 11:23:35;;;;;;;5.97;5.10;;;12.80;1.00;;;;;;5073499;28;20172;-80
2021/05/07 11:26:05;;;;;;;5.30;4.80;;;12.60;1.00;;;;;;5073502;28;20266;-79
2021/05/07 11:28:43;;;;;;;5.83;4.40;;;12.30;1.00;;;;;;5070782;28;20604;-77
2021/05/07 11:31:09;;;;;;;5.87;4.73;;;12.30;99.90;;;;;;5071989;28;20180;-78
2021/05/07 11:33:35;;;;;;;7.93;5.60;;;12.50;99.90;;;;;;5072591;28;20333;-78
2021/05/07 11:36:06;;;;;;;5.13;4.60;;;12.90;99.90;;;;;;5072799;28;20540;-80
2021/05/07 11:38:33;;;;;;;6.43;5.20;;;12.80;1.00;;;;;;5072521;28;20855;-77
2021/05/07 11:40:59;;;;;;;5.60;4.97;;;12.80;1.00;;;;;;5088182;28;20258;-79
2021/05/07 11:43:30;;;;;;;6.97;5.17;;;12.50;99.90;;;;;;5092171;28;20214;-78
2021/05/07 11:46:06;;;;;;;5.73;4.70;;;12.60;99.90;;;;;;5092446;28;20738;-80
2021/05/07 11:48:32;;;;;;;6.13;4.70;;;12.80;1.00;;;;;;5081626;28;20281;-79
2021/05/07 11:51:06;;;;;;;6.53;4.37;;;12.70;1.00;;;;;;5072617;28;20180;-79
2021/05/07 11:53:35;;;;;;;4.97;3.80;;;12.90;1.00;;;;;;5072067;28;20185;-78
2021/05/07 11:56:02;;;;;;;4.93;4.27;;;13.10;1.00;;;;;;5072311;28;20160;-80
2021/05/07 11:58:31;;;;;;;7.43;4.80;;;13.20;1.00;;;;;;5075567;28;20186;-80
2021/05/07 12:00:57;;;;;;;6.27;4.90;;;13.20;1.00;;;;;;5074843;28;20225;-79
2021/05/07 12:03:25;;;;;;;7.20;5.30;;;13.10;22.30;;;;;;5071654;28;20216;-78
2021/05/07 12:05:52;;;;;;;5.50;4.73;;;13.20;69.40;;;;;;5071638;28;20196;-78
2021/05/07 12:08:27;;;;;;;7.03;5.00;;;13.10;94.70;;;;;;5072335;28;20613;-79
2021/05/07 12:10:53;;;;;;;6.47;4.87;;;13.20;1.00;;;;;;5071794;28;20180;-79
2021/05/07 12:13:24;;;;;;;5.53;4.93;;;13.20;1.00;;;;;;5072042;28;20628;-80
2021/05/07 12:15:50;;;;;;;6.20;5.00;;;13.30;1.00;;;;;;5072280;28;20176;-78
2021/05/07 12:18:21;;;;;;;7.97;4.83;;;13.20;1.00;;;;;;5085023;28;20567;-80
2021/05/07 12:20:49;;;;;;;5.37;4.87;;;13.20;1.00;;;;;;5072209;28;20176;-79
2021/05/07 12:23:15;;;;;;;5.07;4.53;;;13.30;1.00;;;;;;5071482;28;20186;-82
2021/05/07 12:25:43;;;;;;;6.63;5.30;;;13.50;1.00;;;;;;5070804;28;20208;-79
2021/05/07 12:28:35;;;;;;;5.43;4.87;;;13.60;1.00;;;;;;5071228;28;20172;-80
2021/05/07 12:31:04;;;;;;;5.70;5.10;;;13.70;1.00;;;;;;5072244;28;20271;-78
2021/05/07 12:33:30;;;;;;;5.90;5.30;;;13.50;1.00;;;;;;5070711;28;20272;-81
2021/05/07 12:35:57;;;;;;;6.13;5.53;;;13.50;1.00;;;;;;5075938;28;20191;-80
2021/05/07 12:38:35;;;;;;;5.30;4.80;;;13.80;1.00;;;;;;5072036;28;20175;-80
2021/05/07 12:41:07;;;;;;;5.97;5.07;;;13.90;1.00;;;;;;5072359;28;20160;-81
2021/05/07 12:43:45;;;;;;;8.97;5.17;;;13.40;1.00;;;;;;5071887;28;20164;-81
2021/05/07 12:46:13;;;;;;;6.53;5.40;;;13.40;1.00;;;;;;5072104;28;20652;-81
2021/05/07 12:48:39;;;;;;;5.93;5.33;;;13.20;1.00;;;;;;5071940;28;20161;-80
2021/05/07 12:51:07;;;;;;;6.40;5.70;;;13.00;1.00;;;;;;5071569;28;20194;-81